Wednesday, January 17, 2018, 2:48 PM GMT
Back to Local

CXKT, Kentville , N. S.

Location: , , Canada Lat: 45.067
Local Time: 2:48 PM GMT (14:48 GMT) Lon: -64.483
Time Zone: GMT Elev: 160 ft

Show me the last for .
Show Coded

Time T Td Feel RH Dir Speed Gust Alt SLP Vis Weather Sky Remarks
2018-01-17 14:00 24 22 - 94 40° 2 - - 30.45 0 1-hr Precip Total: 0.03"
2018-01-17 13:00 23 22 - 96 - Calm - - 30.45 0 1-hr Precip Total: 0.03"
2018-01-17 12:00 24 21 - 88 - Calm - - 30.46 0 1-hr Precip Total: 0.02"
2018-01-17 11:00 24 20 - 86 - Calm - - 30.46 0 1-hr Precip Total: 0.01"
2018-01-17 10:00 22 22 - 100 170° 2 - - 30.45 0 None
2018-01-17 09:00 22 20 - 93 170° 1 - - 30.44 0 None
2018-01-17 08:00 21 19 16 92 200° 3 - - 30.44 0 None
2018-01-17 07:00 21 19 16 92 220° 3 - - 30.44 0 None
2018-01-17 06:00 20 18 15 92 200° 3 - - 30.45 0 None
2018-01-17 05:00 20 18 15 92 220° 3 - - 30.44 0 None
2018-01-17 04:00 19 17 14 91 250° 3 - - 30.46 0 None
2018-01-17 03:00 21 19 14 91 270° 6 - - 30.47 0 None
2018-01-17 02:00 23 20 17 91 270° 5 - - 30.46 0 None
2018-01-17 01:00 24 22 17 90 270° 6 - - 30.46 0 None
2018-01-17 00:00 25 23 18 91 240° 6 - - 30.45 0 None
2018-01-16 23:00 26 24 19 91 250° 6 - - 30.43 0 None
2018-01-16 22:00 26 24 19 92 240° 6 - - 30.43 0 None
2018-01-16 21:00 26 25 19 95 270° 7 - - 30.42 0 None
2018-01-16 20:00 26 25 - 95 330° 1 - - 30.40 0 None
2018-01-16 19:00 26 25 19 94 290° 6 - - 30.40 0 None
2018-01-16 18:00 26 25 - 94 280° 2 - - 30.37 0 None
2018-01-16 17:00 28 24 - 88 270° 2 - - 30.38 0 None
2018-01-16 16:00 28 24 - 88 330° 2 - - 30.38 0 None
2018-01-16 15:00 25 24 20 94 340° 3 - - 30.41 0 1-hr Precip Total: 0.01"

Support USWX by starting your Amazon purchase here.